Aeroporto :
LOGIN :

Iscrizione | Disclaimer

   EN    FR    IT 

 










Sommario :    VFR   VFR Marginale   IFR   IFR Intensivo   IFR Molto Intensivo
Visibilità : 
Base nubi : 
>= 8 km
>= 3000ft
5 / 8 km
1000 / 3000 ft
1500m / 5 km
500 / 1000 ft
800 / 1500m
200 / 500 ft
< 800m
< 200 ft
Simboli :   Temporali  Nebbia  Neve Forte  Precipitazioni Forti  Vento > 20 kt
SIGMETs :   Varie  Temporali  Ghiacco  Turbolenza  Onda orograficha  Ceneri Vulcaniche






- Altitudine del aeroporto : 423 ft
- Codice IATA : PIS


LFBI - Poitiers

ULTIMO METAR :
  • 271100Z AUTO 28014KT 9999 SCT034 BKN042 BKN048 16/08 Q1010 TEMPO 26015G25KT

METARs OBSOLETI :
  • 271030Z AUTO 27011KT 9999 BKN033 BKN042 OVC052 16/08 Q1011 TEMPO 26015G25KT
  • 271000Z AUTO 27012KT 240V300 9999 SCT030 BKN058 16/09 Q1011 NOSIG
  • 270930Z AUTO 28012KT 250V310 9999 FEW029 OVC058 15/09 Q1011 NOSIG
  • 270900Z AUTO 27009KT 240V300 CAVOK 14/09 Q1011 NOSIG
  • 270830Z AUTO 24008KT CAVOK 13/10 Q1011 NOSIG
  • 270800Z AUTO 26010KT CAVOK 12/09 Q1011 NOSIG

TAF TAF LFBI
Valido dal 27 a 06 ore il 28 a 06 ore UTC


270500Z 2706/2806 28008KT CAVOK
TEMPO 2712/2806 26015G25KT
BECMG 2716/2719 25012KT
TEMPO 2720/2806 4000 RA BKN009 BKN025



MetMap, La meteo Aeronautica in un colpo d'occhio ! - Copyright ORBIFLY Dicembre 2007 - Disclaimer

ORBIFLY MET'MAP TEAM :

Programmazione e sviluppo : Alexandra Zaïnal
Concezione : Baudouin d'Aumeries
Supporto tecnico e logistico : Manuel Goepfert
Aiuto : Marc-Olivier Méhu
Aiuto per la traduzione : Arnaldo La Scala




FONTI E CREDITI :

   NOAA